sensor_id;sensor_type;location;lat;lon;timestamp;temperature;humidity
4509;DHT22;2267;48.816;9.230;2023-02-01T00:00:17;6.00;99.90
4509;DHT22;2267;48.816;9.230;2023-02-01T00:02:44;5.90;99.90
4509;DHT22;2267;48.816;9.230;2023-02-01T00:05:11;5.90;99.90
4509;DHT22;2267;48.816;9.230;2023-02-01T00:07:38;5.90;99.90
4509;DHT22;2267;48.816;9.230;2023-02-01T00:10:06;5.90;99.90
4509;DHT22;2267;48.816;9.230;2023-02-01T00:12:33;5.90;99.90
4509;DHT22;2267;48.816;9.230;2023-02-01T00:15:00;5.90;99.90
4509;DHT22;2267;48.816;9.230;2023-02-01T00:17:27;5.90;99.90
4509;DHT22;2267;48.816;9.230;2023-02-01T00:19:53;5.90;99.90
4509;DHT22;2267;48.816;9.230;2023-02-01T00:22:20;5.90;99.90
4509;DHT22;2267;48.816;9.230;2023-02-01T00:24:47;5.90;99.90
4509;DHT22;2267;48.816;9.230;2023-02-01T00:27:14;5.90;99.90
4509;DHT22;2267;48.816;9.230;2023-02-01T00:29:46;5.90;99.90
4509;DHT22;2267;48.816;9.230;2023-02-01T00:32:13;5.90;99.90
4509;DHT22;2267;48.816;9.230;2023-02-01T00:34:40;5.90;99.90
4509;DHT22;2267;48.816;9.230;2023-02-01T00:37:07;5.90;99.90
4509;DHT22;2267;48.816;9.230;2023-02-01T00:39:34;5.90;99.90
4509;DHT22;2267;48.816;9.230;2023-02-01T00:42:00;5.90;99.90
4509;DHT22;2267;48.816;9.230;2023-02-01T00:44:28;5.90;99.90
4509;DHT22;2267;48.816;9.230;2023-02-01T00:47:00;5.90;99.90
4509;DHT22;2267;48.816;9.230;2023-02-01T00:49:27;5.90;99.90
4509;DHT22;2267;48.816;9.230;2023-02-01T00:51:54;5.80;99.90
4509;DHT22;2267;48.816;9.230;2023-02-01T00:54:21;5.90;99.90
4509;DHT22;2267;48.816;9.230;2023-02-01T00:56:48;5.90;99.90
4509;DHT22;2267;48.816;9.230;2023-02-01T00:59:15;5.80;99.90
4509;DHT22;2267;48.816;9.230;2023-02-01T01:01:42;5.80;99.90
4509;DHT22;2267;48.816;9.230;2023-02-01T01:04:09;5.80;99.90
4509;DHT22;2267;48.816;9.230;2023-02-01T01:06:35;5.80;99.90
4509;DHT22;2267;48.816;9.230;2023-02-01T01:09:05;5.80;99.90
4509;DHT22;2267;48.816;9.230;2023-02-01T01:11:35;5.80;99.90
4509;DHT22;2267;48.816;9.230;2023-02-01T01:14:04;5.70;99.90
4509;DHT22;2267;48.816;9.230;2023-02-01T01:16:32;5.80;99.90
4509;DHT22;2267;48.816;9.230;2023-02-01T01:18:59;5.70;99.90
4509;DHT22;2267;48.816;9.230;2023-02-01T01:21:27;5.70;99.90
4509;DHT22;2267;48.816;9.230;2023-02-01T01:23:53;5.70;99.90
4509;DHT22;2267;48.816;9.230;2023-02-01T01:26:26;5.70;99.90
4509;DHT22;2267;48.816;9.230;2023-02-01T01:28:58;5.70;99.90
4509;DHT22;2267;48.816;9.230;2023-02-01T01:31:25;5.60;99.90
4509;DHT22;2267;48.816;9.230;2023-02-01T01:33:54;5.60;99.90
4509;DHT22;2267;48.816;9.230;2023-02-01T01:36:22;5.60;99.90
4509;DHT22;2267;48.816;9.230;2023-02-01T01:38:49;5.60;99.90
4509;DHT22;2267;48.816;9.230;2023-02-01T01:41:20;5.50;99.90
4509;DHT22;2267;48.816;9.230;2023-02-01T01:43:58;5.60;99.90
4509;DHT22;2267;48.816;9.230;2023-02-01T01:46:28;5.60;99.90
4509;DHT22;2267;48.816;9.230;2023-02-01T01:49:09;5.60;99.90
4509;DHT22;2267;48.816;9.230;2023-02-01T01:51:42;5.60;99.90
4509;DHT22;2267;48.816;9.230;2023-02-01T01:54:17;5.70;99.90
4509;DHT22;2267;48.816;9.230;2023-02-01T01:56:48;5.70;99.90
4509;DHT22;2267;48.816;9.230;2023-02-01T01:59:16;5.70;99.90
4509;DHT22;2267;48.816;9.230;2023-02-01T02:01:44;5.70;99.90
4509;DHT22;2267;48.816;9.230;2023-02-01T02:04:11;5.70;99.90
4509;DHT22;2267;48.816;9.230;2023-02-01T02:09:15;5.80;99.90
4509;DHT22;2267;48.816;9.230;2023-02-01T02:11:42;5.80;99.90
4509;DHT22;2267;48.816;9.230;2023-02-01T02:14:11;5.80;99.90
4509;DHT22;2267;48.816;9.230;2023-02-01T02:36:28;5.90;99.90
4509;DHT22;2267;48.816;9.230;2023-02-01T02:41:43;5.90;99.90
4509;DHT22;2267;48.816;9.230;2023-02-01T02:50:27;5.90;99.90
4509;DHT22;2267;48.816;9.230;2023-02-01T02:53:21;5.90;99.90
4509;DHT22;2267;48.816;9.230;2023-02-01T02:56:09;5.90;99.90
4509;DHT22;2267;48.816;9.230;2023-02-01T02:58:55;5.90;99.90
4509;DHT22;2267;48.816;9.230;2023-02-01T03:01:41;5.90;99.90
4509;DHT22;2267;48.816;9.230;2023-02-01T03:04:27;5.90;99.90
4509;DHT22;2267;48.816;9.230;2023-02-01T03:06:54;5.90;99.90
4509;DHT22;2267;48.816;9.230;2023-02-01T03:09:31;5.90;99.90
4509;DHT22;2267;48.816;9.230;2023-02-01T03:12:04;5.90;99.90
4509;DHT22;2267;48.816;9.230;2023-02-01T03:14:54;5.90;99.90
4509;DHT22;2267;48.816;9.230;2023-02-01T03:17:28;5.90;99.90
4509;DHT22;2267;48.816;9.230;2023-02-01T03:19:59;6.00;99.90
4509;DHT22;2267;48.816;9.230;2023-02-01T03:22:28;6.00;99.90
4509;DHT22;2267;48.816;9.230;2023-02-01T03:25:09;5.90;99.90
4509;DHT22;2267;48.816;9.230;2023-02-01T03:27:38;5.90;99.90
4509;DHT22;2267;48.816;9.230;2023-02-01T03:32:47;5.90;99.90
4509;DHT22;2267;48.816;9.230;2023-02-01T03:38:30;5.90;99.90
4509;DHT22;2267;48.816;9.230;2023-02-01T03:41:08;6.00;99.90
4509;DHT22;2267;48.816;9.230;2023-02-01T03:43:51;5.90;99.90
4509;DHT22;2267;48.816;9.230;2023-02-01T03:46:35;5.90;99.90
4509;DHT22;2267;48.816;9.230;2023-02-01T03:49:07;5.90;99.90
4509;DHT22;2267;48.816;9.230;2023-02-01T03:51:38;5.90;99.90
4509;DHT22;2267;48.816;9.230;2023-02-01T03:54:09;5.90;99.90
4509;DHT22;2267;48.816;9.230;2023-02-01T03:56:38;5.90;99.90
4509;DHT22;2267;48.816;9.230;2023-02-01T03:59:05;5.90;99.90
4509;DHT22;2267;48.816;9.230;2023-02-01T04:01:32;5.90;99.90
4509;DHT22;2267;48.816;9.230;2023-02-01T04:03:59;5.90;99.90
4509;DHT22;2267;48.816;9.230;2023-02-01T04:06:26;5.90;99.90
4509;DHT22;2267;48.816;9.230;2023-02-01T04:08:53;5.90;99.90
4509;DHT22;2267;48.816;9.230;2023-02-01T04:11:20;5.90;99.90
4509;DHT22;2267;48.816;9.230;2023-02-01T04:13:46;5.90;99.90
4509;DHT22;2267;48.816;9.230;2023-02-01T04:16:13;5.90;99.90
4509;DHT22;2267;48.816;9.230;2023-02-01T04:18:40;5.90;99.90
4509;DHT22;2267;48.816;9.230;2023-02-01T04:21:07;5.90;99.90
4509;DHT22;2267;48.816;9.230;2023-02-01T04:23:34;5.90;99.90
4509;DHT22;2267;48.816;9.230;2023-02-01T04:26:03;5.90;99.90
4509;DHT22;2267;48.816;9.230;2023-02-01T04:28:31;6.00;99.90
4509;DHT22;2267;48.816;9.230;2023-02-01T04:30:57;5.90;99.90
4509;DHT22;2267;48.816;9.230;2023-02-01T04:33:25;5.90;99.90
4509;DHT22;2267;48.816;9.230;2023-02-01T04:35:52;5.90;99.90
4509;DHT22;2267;48.816;9.230;2023-02-01T04:38:19;5.90;99.90
4509;DHT22;2267;48.816;9.230;2023-02-01T04:40:47;5.90;99.90
4509;DHT22;2267;48.816;9.230;2023-02-01T04:43:16;5.80;99.90
4509;DHT22;2267;48.816;9.230;2023-02-01T04:45:47;5.80;99.90
4509;DHT22;2267;48.816;9.230;2023-02-01T04:48:16;5.80;99.90
4509;DHT22;2267;48.816;9.230;2023-02-01T04:50:44;5.80;99.90
4509;DHT22;2267;48.816;9.230;2023-02-01T04:53:17;5.80;99.90
4509;DHT22;2267;48.816;9.230;2023-02-01T04:55:44;5.80;99.90
4509;DHT22;2267;48.816;9.230;2023-02-01T04:58:11;5.90;99.90
4509;DHT22;2267;48.816;9.230;2023-02-01T05:00:38;5.90;99.90
4509;DHT22;2267;48.816;9.230;2023-02-01T05:03:04;5.90;99.90
4509;DHT22;2267;48.816;9.230;2023-02-01T05:05:33;5.90;99.90
4509;DHT22;2267;48.816;9.230;2023-02-01T05:07:59;6.00;99.90
4509;DHT22;2267;48.816;9.230;2023-02-01T05:10:26;6.00;99.90
4509;DHT22;2267;48.816;9.230;2023-02-01T05:12:53;6.00;99.90
4509;DHT22;2267;48.816;9.230;2023-02-01T05:15:39;6.00;99.90
4509;DHT22;2267;48.816;9.230;2023-02-01T05:18:06;6.00;99.90
4509;DHT22;2267;48.816;9.230;2023-02-01T05:20:32;6.00;99.90
4509;DHT22;2267;48.816;9.230;2023-02-01T05:22:59;6.00;99.90
4509;DHT22;2267;48.816;9.230;2023-02-01T05:25:26;6.00;99.90
4509;DHT22;2267;48.816;9.230;2023-02-01T05:27:53;6.00;99.90
4509;DHT22;2267;48.816;9.230;2023-02-01T05:30:20;6.00;99.90
4509;DHT22;2267;48.816;9.230;2023-02-01T05:32:50;6.00;99.90
4509;DHT22;2267;48.816;9.230;2023-02-01T05:35:17;6.00;99.90
4509;DHT22;2267;48.816;9.230;2023-02-01T05:37:44;6.00;99.90
4509;DHT22;2267;48.816;9.230;2023-02-01T05:40:11;6.10;99.90
4509;DHT22;2267;48.816;9.230;2023-02-01T05:42:38;6.10;99.90
4509;DHT22;2267;48.816;9.230;2023-02-01T05:45:05;6.10;99.90
4509;DHT22;2267;48.816;9.230;2023-02-01T05:47:34;6.10;99.90
4509;DHT22;2267;48.816;9.230;2023-02-01T05:50:00;6.10;99.90
4509;DHT22;2267;48.816;9.230;2023-02-01T05:52:27;6.10;99.90
4509;DHT22;2267;48.816;9.230;2023-02-01T05:54:54;6.10;99.90
4509;DHT22;2267;48.816;9.230;2023-02-01T05:57:21;6.10;99.90
4509;DHT22;2267;48.816;9.230;2023-02-01T05:59:48;6.10;99.90
4509;DHT22;2267;48.816;9.230;2023-02-01T06:02:16;6.10;99.90
4509;DHT22;2267;48.816;9.230;2023-02-01T06:04:43;6.10;99.90
4509;DHT22;2267;48.816;9.230;2023-02-01T06:07:10;6.10;99.90
4509;DHT22;2267;48.816;9.230;2023-02-01T06:09:37;6.00;99.90
4509;DHT22;2267;48.816;9.230;2023-02-01T06:12:04;6.00;99.90
4509;DHT22;2267;48.816;9.230;2023-02-01T06:14:31;6.00;99.90
4509;DHT22;2267;48.816;9.230;2023-02-01T06:16:58;6.00;99.90
4509;DHT22;2267;48.816;9.230;2023-02-01T06:19:24;6.00;99.90
4509;DHT22;2267;48.816;9.230;2023-02-01T06:21:51;6.00;99.90
4509;DHT22;2267;48.816;9.230;2023-02-01T06:24:18;6.00;99.90
4509;DHT22;2267;48.816;9.230;2023-02-01T06:26:45;6.00;99.90
4509;DHT22;2267;48.816;9.230;2023-02-01T06:29:12;6.00;99.90
4509;DHT22;2267;48.816;9.230;2023-02-01T06:31:39;6.00;99.90
4509;DHT22;2267;48.816;9.230;2023-02-01T06:34:07;6.00;99.90
4509;DHT22;2267;48.816;9.230;2023-02-01T06:36:33;6.00;99.90
4509;DHT22;2267;48.816;9.230;2023-02-01T06:39:00;6.10;99.90
4509;DHT22;2267;48.816;9.230;2023-02-01T06:41:27;6.10;99.90
4509;DHT22;2267;48.816;9.230;2023-02-01T06:43:55;6.10;99.90
4509;DHT22;2267;48.816;9.230;2023-02-01T06:46:22;6.10;99.90
4509;DHT22;2267;48.816;9.230;2023-02-01T06:48:49;6.10;99.90
4509;DHT22;2267;48.816;9.230;2023-02-01T06:51:27;6.10;99.90
4509;DHT22;2267;48.816;9.230;2023-02-01T06:53:55;6.10;99.90
4509;DHT22;2267;48.816;9.230;2023-02-01T06:56:23;6.10;99.90
4509;DHT22;2267;48.816;9.230;2023-02-01T06:58:50;6.10;99.90
4509;DHT22;2267;48.816;9.230;2023-02-01T07:01:17;6.10;99.90
4509;DHT22;2267;48.816;9.230;2023-02-01T07:03:48;6.20;99.90
4509;DHT22;2267;48.816;9.230;2023-02-01T07:06:15;6.20;99.90
4509;DHT22;2267;48.816;9.230;2023-02-01T07:08:42;6.20;99.90
4509;DHT22;2267;48.816;9.230;2023-02-01T07:11:11;6.20;99.90
4509;DHT22;2267;48.816;9.230;2023-02-01T07:13:39;6.20;99.90
4509;DHT22;2267;48.816;9.230;2023-02-01T07:16:09;6.30;99.90
4509;DHT22;2267;48.816;9.230;2023-02-01T07:18:37;6.30;99.90
4509;DHT22;2267;48.816;9.230;2023-02-01T07:21:04;6.30;99.90
4509;DHT22;2267;48.816;9.230;2023-02-01T07:23:31;6.30;99.90
4509;DHT22;2267;48.816;9.230;2023-02-01T07:26:00;6.40;99.90
4509;DHT22;2267;48.816;9.230;2023-02-01T07:28:29;6.40;99.90
4509;DHT22;2267;48.816;9.230;2023-02-01T07:31:03;6.40;99.90
4509;DHT22;2267;48.816;9.230;2023-02-01T07:33:30;6.40;99.90
4509;DHT22;2267;48.816;9.230;2023-02-01T07:35:57;6.50;99.90
4509;DHT22;2267;48.816;9.230;2023-02-01T07:38:23;6.50;99.90
4509;DHT22;2267;48.816;9.230;2023-02-01T07:40:50;6.50;99.90
4509;DHT22;2267;48.816;9.230;2023-02-01T07:43:17;6.50;99.90
4509;DHT22;2267;48.816;9.230;2023-02-01T07:45:50;6.60;99.90
4509;DHT22;2267;48.816;9.230;2023-02-01T07:48:18;6.60;99.90
4509;DHT22;2267;48.816;9.230;2023-02-01T07:50:44;6.60;99.90
4509;DHT22;2267;48.816;9.230;2023-02-01T07:53:11;6.70;99.90
4509;DHT22;2267;48.816;9.230;2023-02-01T07:55:39;6.60;99.90
4509;DHT22;2267;48.816;9.230;2023-02-01T07:58:05;6.70;99.90
4509;DHT22;2267;48.816;9.230;2023-02-01T08:00:32;6.70;99.90
4509;DHT22;2267;48.816;9.230;2023-02-01T08:03:18;6.70;99.90
4509;DHT22;2267;48.816;9.230;2023-02-01T08:05:44;6.70;99.90
4509;DHT22;2267;48.816;9.230;2023-02-01T08:08:11;6.70;99.90
4509;DHT22;2267;48.816;9.230;2023-02-01T08:10:38;6.70;99.90
4509;DHT22;2267;48.816;9.230;2023-02-01T08:13:05;6.70;99.90
4509;DHT22;2267;48.816;9.230;2023-02-01T08:15:32;6.70;99.90
4509;DHT22;2267;48.816;9.230;2023-02-01T08:17:59;6.80;99.90
4509;DHT22;2267;48.816;9.230;2023-02-01T08:20:26;6.80;99.90
4509;DHT22;2267;48.816;9.230;2023-02-01T08:22:54;6.80;99.90
4509;DHT22;2267;48.816;9.230;2023-02-01T08:25:21;6.80;99.90
4509;DHT22;2267;48.816;9.230;2023-02-01T08:27:48;6.80;99.90
4509;DHT22;2267;48.816;9.230;2023-02-01T08:30:15;6.80;99.90
4509;DHT22;2267;48.816;9.230;2023-02-01T08:32:42;6.90;99.90
4509;DHT22;2267;48.816;9.230;2023-02-01T08:35:09;6.90;99.90
4509;DHT22;2267;48.816;9.230;2023-02-01T08:37:35;7.00;99.90
4509;DHT22;2267;48.816;9.230;2023-02-01T08:40:04;7.00;99.90
4509;DHT22;2267;48.816;9.230;2023-02-01T08:42:31;7.00;99.90
4509;DHT22;2267;48.816;9.230;2023-02-01T08:45:27;7.00;99.90
4509;DHT22;2267;48.816;9.230;2023-02-01T08:47:56;7.10;99.90
4509;DHT22;2267;48.816;9.230;2023-02-01T08:50:24;7.10;99.90
4509;DHT22;2267;48.816;9.230;2023-02-01T08:52:52;7.10;99.90
4509;DHT22;2267;48.816;9.230;2023-02-01T08:55:20;7.20;99.90
4509;DHT22;2267;48.816;9.230;2023-02-01T08:57:46;7.20;99.90
4509;DHT22;2267;48.816;9.230;2023-02-01T09:00:15;7.20;99.90
4509;DHT22;2267;48.816;9.230;2023-02-01T09:02:43;7.20;99.90
4509;DHT22;2267;48.816;9.230;2023-02-01T09:05:11;7.20;99.90
4509;DHT22;2267;48.816;9.230;2023-02-01T09:07:38;7.20;99.90
4509;DHT22;2267;48.816;9.230;2023-02-01T09:10:05;7.20;99.90
4509;DHT22;2267;48.816;9.230;2023-02-01T09:12:33;7.20;99.90
4509;DHT22;2267;48.816;9.230;2023-02-01T09:15:01;7.20;99.90
4509;DHT22;2267;48.816;9.230;2023-02-01T09:17:28;7.20;99.90
4509;DHT22;2267;48.816;9.230;2023-02-01T09:19:56;7.20;99.90
4509;DHT22;2267;48.816;9.230;2023-02-01T09:22:23;7.20;99.90
4509;DHT22;2267;48.816;9.230;2023-02-01T09:24:50;7.20;99.90
4509;DHT22;2267;48.816;9.230;2023-02-01T09:27:18;7.20;99.90
4509;DHT22;2267;48.816;9.230;2023-02-01T09:29:45;7.20;99.90
4509;DHT22;2267;48.816;9.230;2023-02-01T09:32:16;7.10;99.90
4509;DHT22;2267;48.816;9.230;2023-02-01T09:34:43;7.10;99.90
4509;DHT22;2267;48.816;9.230;2023-02-01T09:37:10;7.20;99.90
4509;DHT22;2267;48.816;9.230;2023-02-01T09:39:36;7.20;99.90
4509;DHT22;2267;48.816;9.230;2023-02-01T09:42:19;7.20;99.90
4509;DHT22;2267;48.816;9.230;2023-02-01T09:44:55;7.20;99.90
4509;DHT22;2267;48.816;9.230;2023-02-01T09:47:25;7.30;99.90
4509;DHT22;2267;48.816;9.230;2023-02-01T09:55:28;7.30;99.90
4509;DHT22;2267;48.816;9.230;2023-02-01T09:58:07;7.30;99.90
4509;DHT22;2267;48.816;9.230;2023-02-01T10:00:37;7.30;99.90
4509;DHT22;2267;48.816;9.230;2023-02-01T10:03:05;7.30;99.90
4509;DHT22;2267;48.816;9.230;2023-02-01T10:05:50;7.40;99.90
4509;DHT22;2267;48.816;9.230;2023-02-01T10:11:32;7.50;99.90
4509;DHT22;2267;48.816;9.230;2023-02-01T10:17:04;7.50;99.90
4509;DHT22;2267;48.816;9.230;2023-02-01T10:22:46;7.50;99.90
4509;DHT22;2267;48.816;9.230;2023-02-01T10:28:19;7.50;99.90
4509;DHT22;2267;48.816;9.230;2023-02-01T10:30:48;7.50;99.90
4509;DHT22;2267;48.816;9.230;2023-02-01T10:33:33;7.60;99.90
4509;DHT22;2267;48.816;9.230;2023-02-01T10:36:13;7.60;99.90
4509;DHT22;2267;48.816;9.230;2023-02-01T10:38:41;7.60;99.90
4509;DHT22;2267;48.816;9.230;2023-02-01T10:41:15;7.60;99.90
4509;DHT22;2267;48.816;9.230;2023-02-01T10:43:45;7.60;99.90
4509;DHT22;2267;48.816;9.230;2023-02-01T10:46:12;7.60;99.90
4509;DHT22;2267;48.816;9.230;2023-02-01T10:48:39;7.60;99.90
4509;DHT22;2267;48.816;9.230;2023-02-01T10:51:14;7.60;99.90
4509;DHT22;2267;48.816;9.230;2023-02-01T10:56:14;7.60;99.90
4509;DHT22;2267;48.816;9.230;2023-02-01T10:58:48;7.70;99.90
4509;DHT22;2267;48.816;9.230;2023-02-01T11:01:21;7.70;99.90
4509;DHT22;2267;48.816;9.230;2023-02-01T11:03:59;7.70;99.90
4509;DHT22;2267;48.816;9.230;2023-02-01T11:06:38;7.70;99.90
4509;DHT22;2267;48.816;9.230;2023-02-01T11:16:47;7.70;99.90
4509;DHT22;2267;48.816;9.230;2023-02-01T11:19:16;7.70;99.90
4509;DHT22;2267;48.816;9.230;2023-02-01T11:21:44;7.70;99.90
4509;DHT22;2267;48.816;9.230;2023-02-01T11:24:35;7.70;99.90
4509;DHT22;2267;48.816;9.230;2023-02-01T11:27:04;7.70;99.90
4509;DHT22;2267;48.816;9.230;2023-02-01T11:29:37;7.70;99.90
4509;DHT22;2267;48.816;9.230;2023-02-01T11:32:08;7.60;99.90
4509;DHT22;2267;48.816;9.230;2023-02-01T11:34:49;7.60;99.90
4509;DHT22;2267;48.816;9.230;2023-02-01T11:37:41;7.60;99.90
4509;DHT22;2267;48.816;9.230;2023-02-01T11:40:38;7.60;99.90
4509;DHT22;2267;48.816;9.230;2023-02-01T11:45:58;7.60;99.90
4509;DHT22;2267;48.816;9.230;2023-02-01T11:48:28;7.60;99.90
4509;DHT22;2267;48.816;9.230;2023-02-01T11:51:17;7.60;99.90
4509;DHT22;2267;48.816;9.230;2023-02-01T11:56:33;7.60;99.90
4509;DHT22;2267;48.816;9.230;2023-02-01T12:07:20;7.80;99.90
4509;DHT22;2267;48.816;9.230;2023-02-01T12:12:48;7.80;99.60
4509;DHT22;2267;48.816;9.230;2023-02-01T12:15:39;7.80;99.50
4509;DHT22;2267;48.816;9.230;2023-02-01T12:26:27;7.70;98.90
4509;DHT22;2267;48.816;9.230;2023-02-01T12:29:18;7.70;98.90
4509;DHT22;2267;48.816;9.230;2023-02-01T12:42:26;7.70;99.10
4509;DHT22;2267;48.816;9.230;2023-02-01T12:47:35;7.70;99.30
4509;DHT22;2267;48.816;9.230;2023-02-01T12:52:43;7.60;99.90
4509;DHT22;2267;48.816;9.230;2023-02-01T12:55:20;7.70;99.90
4509;DHT22;2267;48.816;9.230;2023-02-01T12:57:57;7.60;99.90
4509;DHT22;2267;48.816;9.230;2023-02-01T13:00:30;7.70;99.90
4509;DHT22;2267;48.816;9.230;2023-02-01T13:08:30;7.70;99.90
4509;DHT22;2267;48.816;9.230;2023-02-01T13:11:04;7.60;99.90
4509;DHT22;2267;48.816;9.230;2023-02-01T13:13:51;7.70;99.90
4509;DHT22;2267;48.816;9.230;2023-02-01T13:16:40;7.60;99.90
4509;DHT22;2267;48.816;9.230;2023-02-01T13:19:13;7.60;99.90
4509;DHT22;2267;48.816;9.230;2023-02-01T13:21:47;7.60;99.90
4509;DHT22;2267;48.816;9.230;2023-02-01T13:24:40;7.50;99.90
4509;DHT22;2267;48.816;9.230;2023-02-01T13:27:18;7.50;99.90
4509;DHT22;2267;48.816;9.230;2023-02-01T13:29:55;7.60;99.90
4509;DHT22;2267;48.816;9.230;2023-02-01T13:38:26;7.60;99.90
4509;DHT22;2267;48.816;9.230;2023-02-01T13:43:54;7.60;99.90
4509;DHT22;2267;48.816;9.230;2023-02-01T13:46:22;7.60;99.90
4509;DHT22;2267;48.816;9.230;2023-02-01T13:48:55;7.60;99.90
4509;DHT22;2267;48.816;9.230;2023-02-01T13:53:59;7.70;99.90
4509;DHT22;2267;48.816;9.230;2023-02-01T13:56:26;7.60;99.90
4509;DHT22;2267;48.816;9.230;2023-02-01T13:58:53;7.60;99.90
4509;DHT22;2267;48.816;9.230;2023-02-01T14:03:55;7.60;99.90
4509;DHT22;2267;48.816;9.230;2023-02-01T14:11:41;7.50;99.90
4509;DHT22;2267;48.816;9.230;2023-02-01T14:19:37;7.60;99.90
4509;DHT22;2267;48.816;9.230;2023-02-01T14:24:56;7.60;99.90
4509;DHT22;2267;48.816;9.230;2023-02-01T14:27:30;7.60;99.90
4509;DHT22;2267;48.816;9.230;2023-02-01T14:30:06;7.60;99.90
4509;DHT22;2267;48.816;9.230;2023-02-01T14:32:39;7.60;99.90
4509;DHT22;2267;48.816;9.230;2023-02-01T14:35:28;7.60;99.90
4509;DHT22;2267;48.816;9.230;2023-02-01T14:38:00;7.60;99.90
4509;DHT22;2267;48.816;9.230;2023-02-01T14:40:29;7.60;99.90
4509;DHT22;2267;48.816;9.230;2023-02-01T14:42:57;7.70;99.90
4509;DHT22;2267;48.816;9.230;2023-02-01T14:50:46;7.70;99.90
4509;DHT22;2267;48.816;9.230;2023-02-01T14:53:32;7.60;99.90
4509;DHT22;2267;48.816;9.230;2023-02-01T15:04:14;7.60;99.90
4509;DHT22;2267;48.816;9.230;2023-02-01T15:06:53;7.60;99.90
4509;DHT22;2267;48.816;9.230;2023-02-01T15:09:32;7.60;99.90
4509;DHT22;2267;48.816;9.230;2023-02-01T15:14:45;7.60;99.90
4509;DHT22;2267;48.816;9.230;2023-02-01T15:17:27;7.60;99.90
4509;DHT22;2267;48.816;9.230;2023-02-01T15:22:53;7.60;99.90
4509;DHT22;2267;48.816;9.230;2023-02-01T15:25:30;7.60;99.90
4509;DHT22;2267;48.816;9.230;2023-02-01T15:27:57;7.60;99.90
4509;DHT22;2267;48.816;9.230;2023-02-01T15:30:26;7.60;99.90
4509;DHT22;2267;48.816;9.230;2023-02-01T15:33:24;7.60;99.90
4509;DHT22;2267;48.816;9.230;2023-02-01T15:36:06;7.60;99.90
4509;DHT22;2267;48.816;9.230;2023-02-01T15:38:43;7.70;99.90
4509;DHT22;2267;48.816;9.230;2023-02-01T15:41:15;7.60;99.90
4509;DHT22;2267;48.816;9.230;2023-02-01T15:46:36;7.60;99.90
4509;DHT22;2267;48.816;9.230;2023-02-01T15:49:04;7.60;99.90
4509;DHT22;2267;48.816;9.230;2023-02-01T15:51:32;7.60;99.90
4509;DHT22;2267;48.816;9.230;2023-02-01T15:54:03;7.60;99.90
4509;DHT22;2267;48.816;9.230;2023-02-01T15:56:37;7.60;99.90
4509;DHT22;2267;48.816;9.230;2023-02-01T15:59:16;7.60;99.90
4509;DHT22;2267;48.816;9.230;2023-02-01T16:01:43;7.60;99.90
4509;DHT22;2267;48.816;9.230;2023-02-01T16:04:16;7.60;99.90
4509;DHT22;2267;48.816;9.230;2023-02-01T16:06:55;7.60;99.90
4509;DHT22;2267;48.816;9.230;2023-02-01T16:09:25;7.60;99.70
4509;DHT22;2267;48.816;9.230;2023-02-01T16:12:02;7.60;99.80
4509;DHT22;2267;48.816;9.230;2023-02-01T16:14:30;7.60;99.90
4509;DHT22;2267;48.816;9.230;2023-02-01T16:16:58;7.60;99.70
4509;DHT22;2267;48.816;9.230;2023-02-01T16:19:25;7.60;99.70
4509;DHT22;2267;48.816;9.230;2023-02-01T16:21:56;7.60;99.50
4509;DHT22;2267;48.816;9.230;2023-02-01T16:24:22;7.60;99.50
4509;DHT22;2267;48.816;9.230;2023-02-01T16:26:52;7.60;99.30
4509;DHT22;2267;48.816;9.230;2023-02-01T16:29:19;7.60;99.40
4509;DHT22;2267;48.816;9.230;2023-02-01T16:31:48;7.60;99.20
4509;DHT22;2267;48.816;9.230;2023-02-01T16:34:16;7.60;99.10
4509;DHT22;2267;48.816;9.230;2023-02-01T16:36:47;7.60;99.60
4509;DHT22;2267;48.816;9.230;2023-02-01T16:39:19;7.60;99.10
4509;DHT22;2267;48.816;9.230;2023-02-01T16:41:46;7.60;99.10
4509;DHT22;2267;48.816;9.230;2023-02-01T16:44:13;7.60;99.00
4509;DHT22;2267;48.816;9.230;2023-02-01T16:46:42;7.60;98.90
4509;DHT22;2267;48.816;9.230;2023-02-01T16:49:36;7.60;98.90
4509;DHT22;2267;48.816;9.230;2023-02-01T16:52:04;7.60;99.00
4509;DHT22;2267;48.816;9.230;2023-02-01T16:54:31;7.60;99.00
4509;DHT22;2267;48.816;9.230;2023-02-01T16:56:58;7.60;98.90
4509;DHT22;2267;48.816;9.230;2023-02-01T16:59:24;7.60;98.90
4509;DHT22;2267;48.816;9.230;2023-02-01T17:01:51;7.60;99.30
4509;DHT22;2267;48.816;9.230;2023-02-01T17:04:18;7.60;99.10
4509;DHT22;2267;48.816;9.230;2023-02-01T17:06:47;7.60;98.90
4509;DHT22;2267;48.816;9.230;2023-02-01T17:09:15;7.60;98.90
4509;DHT22;2267;48.816;9.230;2023-02-01T17:11:42;7.60;98.90
4509;DHT22;2267;48.816;9.230;2023-02-01T17:14:18;7.60;98.90
4509;DHT22;2267;48.816;9.230;2023-02-01T17:16:49;7.60;98.90
4509;DHT22;2267;48.816;9.230;2023-02-01T17:19:19;7.60;98.90
4509;DHT22;2267;48.816;9.230;2023-02-01T17:21:51;7.60;98.90
4509;DHT22;2267;48.816;9.230;2023-02-01T17:24:23;7.60;98.90
4509;DHT22;2267;48.816;9.230;2023-02-01T17:26:54;7.60;98.80
4509;DHT22;2267;48.816;9.230;2023-02-01T17:29:22;7.60;98.80
4509;DHT22;2267;48.816;9.230;2023-02-01T17:31:51;7.60;98.80
4509;DHT22;2267;48.816;9.230;2023-02-01T17:34:18;7.60;98.80
4509;DHT22;2267;48.816;9.230;2023-02-01T17:36:46;7.60;98.70
4509;DHT22;2267;48.816;9.230;2023-02-01T17:39:15;7.60;98.80
4509;DHT22;2267;48.816;9.230;2023-02-01T17:42:03;7.60;98.90
4509;DHT22;2267;48.816;9.230;2023-02-01T17:44:31;7.60;98.90
4509;DHT22;2267;48.816;9.230;2023-02-01T17:46:57;7.60;98.90
4509;DHT22;2267;48.816;9.230;2023-02-01T17:49:26;7.60;98.90
4509;DHT22;2267;48.816;9.230;2023-02-01T17:51:56;7.60;99.00
4509;DHT22;2267;48.816;9.230;2023-02-01T17:54:23;7.60;99.00
4509;DHT22;2267;48.816;9.230;2023-02-01T17:56:51;7.60;99.10
4509;DHT22;2267;48.816;9.230;2023-02-01T17:59:18;7.60;99.50
4509;DHT22;2267;48.816;9.230;2023-02-01T18:01:45;7.60;99.10
4509;DHT22;2267;48.816;9.230;2023-02-01T18:04:15;7.70;99.20
4509;DHT22;2267;48.816;9.230;2023-02-01T18:06:42;7.60;99.20
4509;DHT22;2267;48.816;9.230;2023-02-01T18:09:09;7.60;99.30
4509;DHT22;2267;48.816;9.230;2023-02-01T18:11:36;7.60;99.30
4509;DHT22;2267;48.816;9.230;2023-02-01T18:14:03;7.60;99.30
4509;DHT22;2267;48.816;9.230;2023-02-01T18:16:33;7.60;99.40
4509;DHT22;2267;48.816;9.230;2023-02-01T18:19:01;7.60;99.50
4509;DHT22;2267;48.816;9.230;2023-02-01T18:21:40;7.60;99.50
4509;DHT22;2267;48.816;9.230;2023-02-01T18:24:15;7.60;99.50
4509;DHT22;2267;48.816;9.230;2023-02-01T18:26:42;7.60;99.50
4509;DHT22;2267;48.816;9.230;2023-02-01T18:29:09;7.60;99.60
4509;DHT22;2267;48.816;9.230;2023-02-01T18:31:40;7.70;99.90
4509;DHT22;2267;48.816;9.230;2023-02-01T18:34:09;7.60;99.70
4509;DHT22;2267;48.816;9.230;2023-02-01T18:36:42;7.60;99.70
4509;DHT22;2267;48.816;9.230;2023-02-01T18:39:09;7.60;99.80
4509;DHT22;2267;48.816;9.230;2023-02-01T18:41:37;7.60;99.80
4509;DHT22;2267;48.816;9.230;2023-02-01T18:44:03;7.60;99.90
4509;DHT22;2267;48.816;9.230;2023-02-01T18:46:30;7.60;99.90
4509;DHT22;2267;48.816;9.230;2023-02-01T18:48:57;7.60;99.80
4509;DHT22;2267;48.816;9.230;2023-02-01T18:51:24;7.60;99.90
4509;DHT22;2267;48.816;9.230;2023-02-01T18:53:50;7.60;99.70
4509;DHT22;2267;48.816;9.230;2023-02-01T18:56:17;7.60;99.70
4509;DHT22;2267;48.816;9.230;2023-02-01T18:58:45;7.60;99.50
4509;DHT22;2267;48.816;9.230;2023-02-01T19:01:15;7.60;99.60
4509;DHT22;2267;48.816;9.230;2023-02-01T19:03:44;7.60;99.50
4509;DHT22;2267;48.816;9.230;2023-02-01T19:06:31;7.60;99.50
4509;DHT22;2267;48.816;9.230;2023-02-01T19:08:57;7.60;99.40
4509;DHT22;2267;48.816;9.230;2023-02-01T19:11:24;7.60;99.30
4509;DHT22;2267;48.816;9.230;2023-02-01T19:13:51;7.60;99.30
4509;DHT22;2267;48.816;9.230;2023-02-01T19:16:18;7.60;99.20
4509;DHT22;2267;48.816;9.230;2023-02-01T19:18:50;7.60;99.20